createdAt,value
2018-02-13T00:00:10.109Z,0.60
2018-02-13T00:02:37.572Z,0.60
2018-02-13T00:05:05.061Z,0.70
2018-02-13T00:07:32.516Z,0.70
2018-02-13T00:09:59.984Z,0.70
2018-02-13T00:12:27.477Z,0.70
2018-02-13T00:14:55.032Z,0.60
2018-02-13T00:17:23.305Z,0.70
2018-02-13T00:19:51.656Z,0.70
2018-02-13T00:22:19.114Z,0.70
2018-02-13T00:24:46.584Z,0.70
2018-02-13T00:27:14.046Z,0.70
2018-02-13T00:29:41.807Z,0.60
2018-02-13T00:32:09.268Z,0.50
2018-02-13T00:34:37.283Z,0.50
2018-02-13T00:37:04.744Z,0.60
2018-02-13T00:39:32.204Z,0.60
2018-02-13T00:41:59.670Z,0.50
2018-02-13T00:44:27.136Z,0.50
2018-02-13T00:46:54.607Z,0.60
2018-02-13T00:49:22.064Z,0.50
2018-02-13T00:51:49.539Z,0.40
2018-02-13T00:54:17.775Z,0.40
2018-02-13T00:56:45.239Z,0.40
2018-02-13T00:59:12.695Z,0.30
2018-02-13T01:01:40.165Z,0.40
2018-02-13T01:04:07.643Z,0.50
2018-02-13T01:06:35.871Z,0.40
2018-02-13T01:09:03.327Z,0.40
2018-02-13T01:11:30.787Z,0.40
2018-02-13T01:13:58.271Z,0.40
2018-02-13T01:16:25.731Z,0.40
2018-02-13T07:33:03.061Z,0.10
2018-02-13T07:35:30.523Z,0.50
2018-02-13T07:37:58.013Z,0.80
2018-02-13T07:40:26.236Z,1.40
2018-02-13T07:42:53.701Z,1.40
2018-02-13T07:45:21.951Z,1.80
2018-02-13T07:47:49.408Z,1.90
2018-02-13T07:50:16.870Z,2.10
2018-02-13T07:52:44.339Z,2.50
2018-02-13T07:55:11.815Z,2.70
2018-02-13T07:57:39.526Z,2.80
2018-02-13T08:00:07.028Z,2.80
2018-02-13T08:02:34.493Z,3.00
2018-02-13T08:05:01.951Z,3.20
2018-02-13T08:07:29.417Z,3.40
2018-02-13T08:09:56.904Z,3.60
2018-02-13T08:12:24.367Z,3.80
2018-02-13T08:14:51.823Z,4.00
2018-02-13T08:17:19.284Z,4.30
2018-02-13T08:19:46.758Z,4.40
2018-02-13T08:22:14.278Z,4.70
2018-02-13T08:24:41.800Z,5.00
2018-02-13T08:27:09.303Z,5.20
2018-02-13T08:29:37.520Z,5.80
2018-02-13T08:32:05.113Z,5.80
2018-02-13T08:34:32.577Z,6.20
2018-02-13T08:37:00.811Z,6.70
2018-02-13T08:39:28.272Z,6.60
2018-02-13T08:41:55.753Z,6.80
2018-02-13T08:44:23.221Z,7.00
2018-02-13T08:46:51.455Z,7.00
2018-02-13T08:49:18.969Z,6.90
2018-02-13T08:51:47.199Z,6.90
2018-02-13T08:54:14.695Z,6.80
2018-02-13T08:56:42.935Z,7.00
2018-02-13T08:59:10.410Z,7.00
2018-02-13T09:01:37.895Z,6.80
2018-02-13T09:04:05.365Z,6.60
2018-02-13T09:06:32.832Z,6.60
2018-02-13T09:09:01.305Z,6.90
2018-02-13T09:11:28.844Z,7.20
2018-02-13T09:13:56.303Z,7.00
2018-02-13T09:16:23.783Z,7.00
2018-02-13T09:18:51.240Z,7.40
2018-02-13T09:21:18.770Z,7.50
2018-02-13T09:23:46.250Z,7.30
2018-02-13T09:26:13.718Z,7.50
2018-02-13T09:28:41.183Z,7.40
2018-02-13T09:31:08.670Z,7.40
2018-02-13T09:33:36.124Z,7.80
2018-02-13T09:36:03.599Z,8.30
2018-02-13T09:38:31.863Z,8.00
2018-02-13T09:40:59.328Z,8.00
2018-02-13T09:43:27.554Z,8.20
2018-02-13T09:45:55.033Z,8.10
2018-02-13T09:48:22.484Z,8.00
2018-02-13T09:50:50.246Z,7.90
2018-02-13T09:53:17.783Z,7.70
2018-02-13T09:55:45.267Z,8.00
2018-02-13T09:58:12.776Z,7.90
2018-02-13T10:00:40.605Z,8.60
2018-02-13T10:03:10.285Z,9.10
2018-02-13T10:05:37.971Z,9.10
2018-02-13T10:08:05.718Z,9.20
2018-02-13T10:10:33.211Z,9.80
2018-02-13T10:13:01.466Z,9.60
2018-02-13T10:15:28.936Z,9.60
2018-02-13T10:17:57.202Z,10.90
2018-02-13T10:20:24.743Z,10.80
2018-02-13T10:22:52.250Z,11.00
2018-02-13T10:25:19.731Z,10.70
2018-02-13T10:27:47.215Z,10.60
2018-02-13T10:30:14.688Z,11.10
2018-02-13T10:32:42.192Z,11.30
2018-02-13T10:35:09.675Z,11.80
2018-02-13T10:37:37.131Z,12.20
2018-02-13T10:40:04.646Z,12.20
2018-02-13T10:42:32.183Z,11.60
2018-02-13T10:44:59.639Z,11.60
2018-02-13T10:47:27.224Z,11.70
2018-02-13T10:49:55.476Z,11.80
2018-02-13T10:52:23.337Z,11.80
2018-02-13T10:54:50.904Z,12.30
2018-02-13T10:57:19.154Z,12.00
2018-02-13T10:59:46.623Z,12.00
2018-02-13T11:02:19.840Z,11.80
2018-02-13T11:04:48.063Z,12.20
2018-02-13T11:07:15.585Z,12.20
2018-02-13T11:09:43.067Z,12.10
2018-02-13T11:12:10.647Z,12.50
2018-02-13T11:14:38.153Z,12.50
2018-02-13T11:17:05.616Z,12.50
2018-02-13T11:19:33.123Z,12.10
2018-02-13T11:22:00.655Z,12.80
2018-02-13T11:24:28.157Z,13.50
2018-02-13T11:26:55.644Z,13.40
2018-02-13T11:29:23.129Z,13.30
2018-02-13T11:31:50.646Z,13.10
2018-02-13T11:34:18.938Z,12.80
2018-02-13T11:36:46.400Z,12.80
2018-02-13T11:39:13.887Z,12.90
2018-02-13T11:41:41.346Z,13.10
2018-02-13T11:44:08.820Z,13.30
2018-02-13T11:46:36.324Z,13.70
2018-02-13T11:49:03.860Z,13.60
2018-02-13T11:51:32.107Z,13.80
2018-02-13T11:53:59.624Z,13.80
2018-02-13T11:56:27.104Z,13.70
2018-02-13T11:58:54.629Z,13.60
2018-02-13T12:01:22.134Z,13.20
2018-02-13T12:03:50.464Z,13.40
2018-02-13T12:06:17.971Z,13.40
2018-02-13T12:08:45.517Z,14.10
2018-02-13T12:11:12.999Z,14.10
2018-02-13T12:13:40.515Z,12.80
2018-02-13T12:16:08.079Z,12.00
2018-02-13T12:18:35.604Z,12.20
2018-02-13T12:21:03.223Z,12.20
2018-02-13T12:23:31.498Z,13.10
2018-02-13T12:25:59.123Z,13.00
2018-02-13T12:28:26.657Z,12.50
2018-02-13T12:30:54.135Z,12.20
2018-02-13T12:33:21.596Z,10.90
2018-02-13T12:35:49.067Z,11.00
2018-02-13T12:38:16.525Z,10.90
2018-02-13T12:40:44.011Z,11.90
2018-02-13T12:43:11.483Z,12.60
2018-02-13T12:45:39.715Z,12.80
2018-02-13T12:48:07.224Z,12.80
2018-02-13T12:50:34.698Z,12.90
2018-02-13T12:53:02.159Z,12.40
2018-02-13T12:55:29.638Z,13.00
2018-02-13T12:57:57.112Z,11.80
2018-02-13T13:00:24.580Z,12.10
2018-02-13T13:02:52.087Z,13.10
2018-02-13T13:05:19.564Z,12.30
2018-02-13T13:07:47.031Z,11.20
2018-02-13T13:10:14.538Z,10.70
2018-02-13T13:12:42.807Z,9.80
2018-02-13T13:15:10.264Z,9.70
2018-02-13T13:17:40.429Z,11.30
2018-02-13T13:20:07.959Z,11.30
2018-02-13T13:22:35.529Z,13.60
2018-02-13T13:25:03.048Z,15.30
2018-02-13T13:27:31.343Z,12.80
2018-02-13T13:29:58.806Z,12.80
2018-02-13T13:32:26.410Z,14.20
2018-02-13T13:34:53.887Z,14.50
2018-02-13T13:37:21.512Z,12.00
2018-02-13T13:39:49.038Z,12.20
2018-02-13T13:42:16.582Z,12.70
2018-02-13T13:44:44.057Z,13.60
2018-02-13T13:47:11.523Z,12.00
2018-02-13T13:49:38.984Z,12.40
2018-02-13T13:52:06.440Z,12.10
2018-02-13T13:54:33.908Z,11.10
2018-02-13T13:57:02.281Z,10.10
2018-02-13T13:59:29.767Z,9.30
2018-02-13T14:01:57.245Z,12.60
2018-02-13T14:04:24.692Z,11.40
2018-02-13T14:06:52.150Z,12.30
2018-02-13T14:09:19.593Z,13.50
2018-02-13T14:11:47.068Z,14.90
2018-02-13T14:14:14.510Z,13.70
2018-02-13T14:16:41.998Z,10.80
2018-02-13T14:19:10.205Z,11.30
2018-02-13T14:21:37.659Z,11.30
2018-02-13T14:24:05.127Z,11.90
2018-02-13T14:26:32.586Z,13.00
2018-02-13T14:29:00.045Z,13.30
2018-02-13T14:31:28.283Z,13.50
2018-02-13T14:33:55.746Z,13.40
2018-02-13T14:36:23.227Z,14.10
2018-02-13T14:38:50.662Z,14.00
2018-02-13T14:41:18.140Z,13.60
2018-02-13T14:43:45.709Z,12.60
2018-02-13T14:46:13.161Z,10.90
2018-02-13T14:48:40.620Z,9.50
2018-02-13T14:51:08.065Z,8.60
2018-02-13T14:53:35.511Z,8.20
2018-02-13T14:56:03.069Z,8.00
2018-02-13T14:58:30.508Z,8.00
2018-02-13T15:00:57.973Z,7.80
2018-02-13T15:03:25.418Z,7.50
2018-02-13T15:05:52.863Z,7.30
2018-02-13T15:08:21.409Z,7.30
2018-02-13T15:10:48.862Z,7.30
2018-02-13T15:13:16.432Z,7.20
2018-02-13T15:15:45.802Z,7.20
2018-02-13T15:18:13.299Z,7.10
2018-02-13T15:20:40.736Z,7.00
2018-02-13T15:23:09.016Z,7.00
2018-02-13T15:25:36.502Z,6.90
2018-02-13T15:28:04.792Z,6.70
2018-02-13T15:30:32.331Z,6.60
2018-02-13T15:32:59.805Z,6.80
2018-02-13T15:35:27.302Z,6.90
2018-02-13T15:37:54.816Z,6.70
2018-02-13T15:40:22.315Z,6.70
2018-02-13T15:42:49.762Z,6.60
2018-02-13T15:45:17.220Z,6.60
2018-02-13T15:47:44.842Z,6.50
2018-02-13T15:50:12.323Z,6.40
2018-02-13T15:52:39.849Z,6.50
2018-02-13T15:55:07.297Z,6.60
2018-02-13T15:57:35.539Z,6.40
2018-02-13T16:00:03.027Z,6.40
2018-02-13T16:02:30.499Z,6.30
2018-02-13T16:04:57.944Z,6.30
2018-02-13T16:07:26.176Z,6.00
2018-02-13T16:09:53.651Z,6.00
2018-02-13T16:12:21.077Z,5.90
2018-02-13T16:14:48.566Z,5.80
2018-02-13T16:17:16.002Z,5.80
2018-02-13T16:19:43.449Z,5.80
2018-02-13T16:22:10.904Z,5.80
2018-02-13T16:24:38.448Z,5.70
2018-02-13T16:27:05.944Z,5.60
2018-02-13T16:29:33.420Z,5.50
2018-02-13T16:32:00.870Z,5.40
2018-02-13T16:34:28.316Z,5.40
2018-02-13T16:36:55.761Z,5.30
2018-02-13T16:39:23.262Z,5.20
2018-02-13T16:41:51.475Z,5.10
2018-02-13T16:44:19.012Z,5.20
2018-02-13T16:46:46.462Z,5.10
2018-02-13T16:49:14.797Z,5.10
2018-02-13T16:51:42.411Z,5.10
2018-02-13T16:54:09.945Z,5.10
2018-02-13T16:56:38.273Z,5.00
2018-02-13T16:59:05.951Z,5.00
2018-02-13T17:01:33.532Z,5.00
2018-02-13T17:04:01.034Z,5.00
2018-02-13T17:06:28.477Z,4.90
2018-02-13T17:08:55.952Z,4.80
2018-02-13T17:11:23.392Z,4.90
2018-02-13T17:13:50.860Z,4.80
2018-02-13T17:16:18.340Z,4.70
2018-02-13T17:18:45.838Z,4.60
2018-02-13T17:21:14.068Z,4.50
2018-02-13T17:23:41.569Z,4.50
2018-02-13T17:26:09.119Z,4.60
2018-02-13T17:28:36.647Z,4.60
2018-02-13T17:31:04.235Z,4.60
2018-02-13T17:33:32.588Z,4.50
2018-02-13T17:36:00.125Z,4.50
2018-02-13T17:38:27.576Z,4.40
2018-02-13T17:40:55.137Z,4.40
2018-02-13T17:43:22.665Z,4.30
2018-02-13T17:45:50.183Z,4.10
2018-02-13T17:48:17.688Z,4.10
2018-02-13T17:50:45.967Z,4.10
2018-02-13T17:53:13.470Z,4.10
2018-02-13T17:55:40.955Z,4.20
2018-02-13T17:58:08.425Z,4.10
2018-02-13T18:00:37.560Z,4.00
2018-02-13T18:03:05.029Z,4.00
2018-02-13T18:05:32.468Z,3.90
2018-02-13T18:08:00.063Z,3.80
2018-02-13T18:10:27.519Z,3.90
2018-02-13T18:12:54.969Z,3.80
2018-02-13T18:15:22.443Z,3.70
2018-02-13T18:17:49.899Z,3.60
2018-02-13T18:20:17.386Z,3.70
2018-02-13T18:22:45.600Z,3.60
2018-02-13T18:25:13.078Z,3.50
2018-02-13T18:27:40.540Z,3.40
2018-02-13T18:30:08.028Z,3.50
2018-02-13T18:32:35.517Z,3.50
2018-02-13T18:35:02.981Z,3.50
2018-02-13T18:37:30.488Z,3.40
2018-02-13T18:39:58.780Z,3.30
2018-02-13T18:42:27.012Z,3.40
2018-02-13T18:44:54.476Z,3.40
2018-02-13T18:47:21.922Z,3.40
2018-02-13T18:49:49.556Z,3.20
2018-02-13T18:54:46.380Z,3.20
2018-02-13T18:57:17.534Z,3.10
2018-02-13T18:59:45.060Z,3.10
2018-02-13T19:02:12.559Z,3.10
2018-02-13T19:04:40.992Z,3.00
2018-02-13T19:07:09.343Z,2.90
2018-02-13T19:09:36.868Z,2.90
2018-02-13T19:12:04.369Z,2.80
2018-02-13T19:14:31.867Z,2.80
2018-02-13T19:19:26.885Z,2.70
2018-02-13T19:21:54.368Z,2.70
2018-02-13T19:24:22.175Z,2.70
2018-02-13T19:26:49.762Z,2.70
2018-02-13T19:29:18.076Z,2.70
2018-02-13T19:31:45.592Z,2.60
2018-02-13T19:34:13.881Z,2.60
2018-02-13T19:36:41.366Z,2.50
2018-02-13T19:39:08.884Z,2.50
2018-02-13T19:41:37.140Z,2.50
2018-02-13T19:44:04.622Z,2.50
2018-02-13T19:46:32.892Z,2.40
2018-02-13T19:49:01.159Z,2.40
2018-02-13T19:51:29.425Z,2.50
2018-02-13T19:53:58.597Z,2.50
2018-02-13T19:56:26.150Z,2.40
2018-02-13T19:58:53.614Z,2.40
2018-02-13T20:01:21.093Z,2.40
2018-02-13T20:03:48.582Z,2.50
2018-02-13T20:06:19.725Z,2.40
2018-02-13T20:08:47.192Z,2.30
2018-02-13T20:11:14.676Z,2.30
2018-02-13T20:13:42.524Z,2.20
2018-02-13T20:16:09.995Z,2.20
2018-02-13T20:18:39.865Z,2.10
2018-02-13T20:21:07.411Z,2.00
2018-02-13T20:23:35.758Z,2.10
2018-02-13T20:26:03.281Z,2.00
2018-02-13T20:28:30.836Z,2.00
2018-02-13T20:30:58.435Z,2.00
2018-02-13T20:33:27.336Z,2.00
2018-02-13T20:35:55.426Z,2.00
2018-02-13T20:38:23.873Z,2.00
2018-02-13T20:40:51.465Z,2.00
2018-02-13T20:43:19.004Z,1.90
2018-02-13T20:45:46.593Z,2.00
2018-02-13T20:48:14.526Z,1.90
2018-02-13T20:50:46.030Z,1.80
2018-02-13T20:56:07.349Z,1.80
2018-02-13T20:58:36.561Z,1.80
2018-02-13T21:01:05.188Z,1.80
2018-02-13T21:03:32.677Z,1.70
2018-02-13T21:06:00.905Z,1.80
2018-02-13T21:08:28.868Z,1.80
2018-02-13T21:10:56.623Z,1.70
2018-02-13T21:13:24.144Z,1.80
2018-02-13T21:15:51.646Z,1.80
2018-02-13T21:18:19.139Z,1.80
2018-02-13T21:20:46.617Z,1.80
2018-02-13T21:23:14.869Z,1.70
2018-02-13T21:25:42.373Z,1.60
2018-02-13T21:28:09.864Z,1.60
2018-02-13T21:30:37.491Z,1.70
2018-02-13T21:33:05.013Z,1.70
2018-02-13T21:35:32.777Z,1.60
2018-02-13T21:38:00.256Z,1.60
2018-02-13T21:40:28.878Z,1.60
2018-02-13T21:42:56.344Z,1.60
2018-02-13T21:45:23.795Z,1.60
2018-02-13T21:47:51.292Z,1.60
2018-02-13T21:50:18.762Z,1.60
2018-02-13T21:52:47.012Z,1.60
2018-02-13T21:55:14.493Z,1.60
2018-02-13T21:57:42.736Z,1.60
2018-02-13T22:00:10.213Z,1.60
2018-02-13T22:02:37.668Z,1.50
2018-02-13T22:05:05.895Z,1.50
2018-02-13T22:07:33.343Z,1.50
2018-02-13T22:10:00.796Z,1.50
2018-02-13T22:12:28.260Z,1.40
2018-02-13T22:14:55.699Z,1.40
2018-02-13T22:17:23.174Z,1.40
2018-02-13T22:19:50.622Z,1.40
2018-02-13T22:22:18.101Z,1.40
2018-02-13T22:24:45.565Z,1.40
2018-02-13T22:27:13.036Z,1.30
2018-02-13T22:29:40.473Z,1.30
2018-02-13T22:32:07.959Z,1.20
2018-02-13T22:34:36.201Z,1.20
2018-02-13T22:37:03.633Z,1.10
2018-02-13T22:39:31.127Z,1.20
2018-02-13T22:41:58.576Z,1.20
2018-02-13T22:44:26.014Z,1.20
2018-02-13T22:46:53.490Z,1.20
2018-02-13T22:49:20.952Z,1.10
2018-02-13T22:51:48.436Z,1.10
2018-02-13T22:54:16.639Z,1.00
2018-02-13T22:56:44.088Z,1.00
2018-02-13T22:59:11.537Z,1.00
2018-02-13T23:01:39.008Z,1.00
2018-02-13T23:04:06.485Z,1.10
2018-02-13T23:06:33.948Z,1.10
2018-02-13T23:09:01.408Z,1.10
2018-02-13T23:11:28.885Z,1.00
2018-02-13T23:13:56.324Z,1.00
2018-02-13T23:16:23.787Z,1.00
2018-02-13T23:18:51.253Z,1.00
2018-02-13T23:21:18.722Z,1.00
2018-02-13T23:23:46.153Z,1.00
2018-02-13T23:26:13.636Z,0.90
2018-02-13T23:28:41.091Z,0.90
2018-02-13T23:31:08.536Z,0.90
2018-02-13T23:33:36.004Z,0.90
2018-02-13T23:36:03.465Z,0.90
2018-02-13T23:38:30.941Z,0.90
2018-02-13T23:40:59.153Z,0.90
2018-02-13T23:43:26.644Z,0.80
2018-02-13T23:45:54.074Z,0.80
2018-02-13T23:48:21.509Z,0.80
2018-02-13T23:50:48.973Z,0.90
2018-02-13T23:53:16.453Z,0.80
2018-02-13T23:55:43.886Z,0.80
2018-02-13T23:58:11.336Z,0.80
